Time;durP1;ratioP1;P1;durP2;ratioP2;P2;SDS_P1;SDS_P2;PMS_P1;PMS_P2;Temp;Humidity;BMP_temperature;BMP_pressure;BME280_temperature;BME280_humidity;BME280_pressure;Samples;Min_cycle;Max_cycle;Signal;HPM_P1;HPM_P2
2023/01/11 00:01:26;;;;;;;6.25;1.58;;;;;;;9.52;100.00;99709.00;4988082;28;20562;-51
2023/01/11 00:03:51;;;;;;;5.68;0.85;;;;;;;9.52;100.00;99708.19;4988948;28;20097;-55
2023/01/11 00:06:17;;;;;;;10.07;0.68;;;;;;;9.50;100.00;99699.63;4989496;28;20431;-52
2023/01/11 00:08:42;;;;;;;10.32;0.85;;;;;;;9.48;100.00;99709.63;4990808;28;20093;-54
2023/01/11 00:11:15;;;;;;;8.35;0.40;;;;;;;9.51;100.00;99722.44;4988089;28;20490;-51
2023/01/11 00:13:41;;;;;;;10.02;0.82;;;;;;;9.45;100.00;99721.44;4987272;28;20045;-55
2023/01/11 00:16:08;;;;;;;5.53;0.50;;;;;;;9.31;100.00;99727.69;4988452;28;20549;-50
2023/01/11 00:18:34;;;;;;;4.05;0.60;;;;;;;9.37;100.00;99716.31;4988881;28;20387;-51
2023/01/11 00:21:04;;;;;;;10.70;1.80;;;;;;;9.38;100.00;99717.94;4985269;28;20515;-55
2023/01/11 00:23:30;;;;;;;10.82;2.65;;;;;;;9.30;100.00;99729.53;4987370;28;20038;-54
2023/01/11 00:25:55;;;;;;;17.52;3.08;;;;;;;9.35;100.00;99734.22;4989568;28;20022;-55
2023/01/11 00:28:21;;;;;;;7.47;2.13;;;;;;;9.46;100.00;99735.47;4989462;28;20046;-50
2023/01/11 00:30:48;;;;;;;2.65;0.30;;;;;;;9.47;100.00;99732.59;4989054;28;20037;-53
2023/01/11 00:33:13;;;;;;;18.45;1.20;;;;;;;9.45;100.00;99734.66;4987843;28;20048;-50
2023/01/11 00:35:38;;;;;;;5.32;1.00;;;;;;;9.33;100.00;99730.97;4988938;28;20045;-50
2023/01/11 00:38:04;;;;;;;7.65;2.67;;;;;;;9.15;100.00;99745.56;4989635;28;20038;-52
2023/01/11 00:40:29;;;;;;;4.75;0.88;;;;;;;9.10;100.00;99737.41;4988892;28;20383;-54
2023/01/11 00:48:22;;;;;;;13.88;2.75;;;;;;;8.90;100.00;99747.91;4988416;28;20041;-53
2023/01/11 00:50:47;;;;;;;12.00;3.35;;;;;;;8.88;100.00;99754.41;4989023;28;20030;-52
2023/01/11 00:53:13;;;;;;;8.82;0.73;;;;;;;9.03;100.00;99751.63;4987345;28;20044;-53
2023/01/11 00:55:38;;;;;;;2.47;1.55;;;;;;;8.82;100.00;99756.03;4985356;28;20026;-54
2023/01/11 00:58:04;;;;;;;3.35;1.92;;;;;;;8.72;100.00;99763.50;4985894;28;20113;-54
2023/01/11 01:00:30;;;;;;;11.95;1.67;;;;;;;8.55;100.00;99764.88;4988601;28;20026;-54
2023/01/11 01:02:55;;;;;;;6.63;1.25;;;;;;;8.42;100.00;99776.97;4984395;28;20034;-54
2023/01/11 01:05:21;;;;;;;5.10;2.03;;;;;;;8.38;100.00;99773.06;4984622;28;20456;-50
2023/01/11 01:07:47;;;;;;;7.20;2.13;;;;;;;8.37;100.00;99779.34;5000671;28;20365;-51
2023/01/11 01:10:14;;;;;;;10.05;1.40;;;;;;;8.29;100.00;99771.59;4986055;28;20022;-53
2023/01/11 01:15:23;;;;;;;7.63;1.38;;;;;;;8.29;100.00;99790.88;4991394;28;20045;-55
2023/01/11 01:17:53;;;;;;;11.73;1.60;;;;;;;8.45;100.00;99795.06;4991419;28;20027;-49
2023/01/11 01:20:19;;;;;;;8.05;1.23;;;;;;;8.40;100.00;99789.56;4985326;28;20042;-53
2023/01/11 01:22:45;;;;;;;8.18;0.60;;;;;;;8.45;100.00;99796.91;4990065;28;20041;-53
2023/01/11 01:25:10;;;;;;;11.20;1.13;;;;;;;8.60;100.00;99800.25;4996596;28;20061;-54
2023/01/11 01:27:36;;;;;;;9.77;2.65;;;;;;;8.62;100.00;99813.25;4988663;28;20396;-55
2023/01/11 01:30:02;;;;;;;8.52;2.03;;;;;;;8.62;100.00;99807.97;4991911;28;20034;-54
2023/01/11 01:32:28;;;;;;;8.48;1.80;;;;;;;8.67;100.00;99810.84;4993104;28;20121;-55
2023/01/11 01:34:53;;;;;;;12.65;1.55;;;;;;;8.69;100.00;99811.47;4995930;28;20030;-52
2023/01/11 01:37:18;;;;;;;13.05;2.95;;;;;;;8.56;100.00;99819.31;4998915;28;20018;-49
2023/01/11 01:39:44;;;;;;;13.30;1.65;;;;;;;8.36;100.00;99821.81;4990572;28;20056;-51
2023/01/11 01:42:18;;;;;;;8.00;2.38;;;;;;;8.56;100.00;99836.00;4992469;28;20060;-53
2023/01/11 01:45:02;;;;;;;11.32;1.98;;;;;;;8.62;100.00;99840.53;4992574;28;20129;-51
2023/01/11 01:47:51;;;;;;;7.93;1.42;;;;;;;8.50;100.00;99850.81;4995250;28;20034;-52
2023/01/11 01:50:58;;;;;;;7.32;0.68;;;;;;;8.31;100.00;99859.34;4989552;28;20121;-53
2023/01/11 01:53:34;;;;;;;9.15;1.85;;;;;;;8.32;100.00;99881.31;4989215;28;20472;-52
2023/01/11 01:56:02;;;;;;;3.40;1.10;;;;;;;8.35;100.00;99873.81;4996107;28;20026;-52
2023/01/11 01:58:34;;;;;;;9.18;2.58;;;;;;;8.37;100.00;99868.34;4986447;28;20787;-55
2023/01/11 02:01:45;;;;;;;7.85;1.02;;;;;;;8.55;100.00;99875.84;4989753;28;20040;-55
2023/01/11 02:03:46;;;;;;;10.65;2.40;;;;;;;8.54;100.00;99864.44;4992795;28;20048;-58
2023/01/11 02:06:11;;;;;;;10.38;2.83;;;;;;;8.34;100.00;99874.84;4994239;28;20034;-53
2023/01/11 02:08:39;;;;;;;8.48;1.33;;;;;;;8.33;100.00;99883.75;4994807;28;20042;-49
2023/01/11 02:11:28;;;;;;;9.02;1.88;;;;;;;8.36;100.00;99887.84;4985876;28;20035;-53
2023/01/11 02:13:53;;;;;;;12.32;2.55;;;;;;;8.29;100.00;99895.72;4992798;28;20045;-51
2023/01/11 02:16:18;;;;;;;9.52;1.70;;;;;;;8.32;100.00;99895.34;4986991;28;20038;-52
2023/01/11 02:18:44;;;;;;;9.85;2.00;;;;;;;8.26;100.00;99901.38;4988376;28;20113;-51
2023/01/11 02:21:20;;;;;;;8.40;1.23;;;;;;;8.14;100.00;99901.06;4992152;28;20050;-54
2023/01/11 02:24:04;;;;;;;8.30;2.22;;;;;;;7.87;100.00;99905.25;4989382;28;20030;-52
2023/01/11 02:26:45;;;;;;;6.53;2.75;;;;;;;7.77;100.00;99912.66;4991228;28;20030;-53
2023/01/11 02:29:16;;;;;;;8.82;1.52;;;;;;;7.92;100.00;99925.81;4991072;28;20026;-52
2023/01/11 02:32:00;;;;;;;10.10;1.92;;;;;;;7.85;100.00;99928.41;4986264;28;20026;-49
2023/01/11 02:34:49;;;;;;;14.05;1.75;;;;;;;7.83;100.00;99928.59;4992895;28;20034;-55
2023/01/11 02:37:23;;;;;;;5.95;1.55;;;;;;;7.83;100.00;99938.31;4987960;28;20546;-51
2023/01/11 02:40:30;;;;;;;4.10;1.10;;;;;;;7.92;100.00;99939.84;4992462;28;20034;-53
2023/01/11 02:46:03;;;;;;;11.35;1.90;;;;;;;8.05;100.00;99941.78;4991266;28;20081;-50
2023/01/11 02:48:38;;;;;;;11.70;2.65;;;;;;;7.83;100.00;99948.88;4986046;28;20045;-53
2023/01/11 02:51:21;;;;;;;14.48;1.88;;;;;;;7.92;100.00;99955.66;4986489;28;20070;-52
2023/01/11 02:53:56;;;;;;;8.98;2.85;;;;;;;7.96;100.00;99951.66;4976433;28;20068;-52
2023/01/11 02:56:26;;;;;;;7.85;0.50;;;;;;;7.99;100.00;99951.28;4988108;28;20065;-53
2023/01/11 02:58:54;;;;;;;13.77;1.70;;;;;;;8.00;100.00;99965.31;4987549;28;20026;-49
2023/01/11 03:01:21;;;;;;;15.45;1.63;;;;;;;7.84;100.00;99961.06;4984189;28;20117;-51
2023/01/11 03:03:47;;;;;;;14.20;4.07;;;;;;;7.89;100.00;99965.78;4994900;28;20098;-51
2023/01/11 03:06:19;;;;;;;4.80;1.52;;;;;;;8.04;100.00;99967.38;4988572;28;20042;-52
2023/01/11 03:09:06;;;;;;;13.50;4.78;;;;;;;7.80;100.00;99970.38;4989087;28;20137;-50
2023/01/11 03:14:46;;;;;;;5.50;0.77;;;;;;;7.54;100.00;99981.44;4987234;28;20069;-52
2023/01/11 03:17:21;;;;;;;6.93;0.88;;;;;;;7.49;100.00;99989.06;4986942;28;20119;-54
2023/01/11 03:19:50;;;;;;;10.40;1.13;;;;;;;7.41;100.00;99989.97;4992120;28;20026;-50
2023/01/11 03:22:37;;;;;;;12.30;2.05;;;;;;;7.35;100.00;99990.69;4990055;28;20022;-51
2023/01/11 03:25:34;;;;;;;13.05;1.83;;;;;;;7.38;100.00;99992.97;4992801;28;20027;-51
2023/01/11 03:28:18;;;;;;;12.20;1.27;;;;;;;7.64;100.00;99985.41;4991405;28;20133;-49
2023/01/11 03:30:53;;;;;;;9.90;0.80;;;;;;;7.67;100.00;99993.94;4991990;28;20050;-51
2023/01/11 03:33:29;;;;;;;10.05;1.58;;;;;;;7.42;100.00;99997.69;4991948;28;20144;-52
2023/01/11 03:36:06;;;;;;;15.63;3.10;;;;;;;7.38;100.00;99993.81;4994138;28;20070;-52
2023/01/11 03:39:08;;;;;;;6.85;1.52;;;;;;;7.52;100.00;100002.69;4979818;28;20034;-51
2023/01/11 03:41:37;;;;;;;10.40;0.85;;;;;;;7.43;100.00;99994.06;4992418;28;20499;-53
2023/01/11 03:44:06;;;;;;;7.30;1.65;;;;;;;7.47;100.00;99993.69;4993944;28;20439;-51
2023/01/11 03:46:47;;;;;;;22.05;4.03;;;;;;;7.33;100.00;99998.81;4990362;28;20026;-52
2023/01/11 03:49:19;;;;;;;9.80;1.48;;;;;;;7.16;100.00;99998.13;4993884;28;20038;-50
2023/01/11 03:51:46;;;;;;;7.85;1.55;;;;;;;7.09;100.00;99997.22;4992826;28;20065;-53
2023/01/11 03:54:21;;;;;;;15.85;2.90;;;;;;;7.08;100.00;100002.69;4990563;28;20049;-52
2023/01/11 03:57:00;;;;;;;10.10;1.48;;;;;;;6.94;100.00;100002.50;4992500;28;20027;-51
2023/01/11 03:59:26;;;;;;;11.18;1.45;;;;;;;6.97;100.00;100004.75;4983194;28;20126;-53
2023/01/11 04:01:53;;;;;;;10.20;1.42;;;;;;;7.09;100.00;100007.75;4989264;28;20058;-51
2023/01/11 04:04:18;;;;;;;13.00;2.45;;;;;;;6.97;100.00;100014.50;4990057;28;20042;-54
2023/01/11 04:06:44;;;;;;;16.42;2.17;;;;;;;7.03;100.00;100008.50;4989089;28;20772;-50
2023/01/11 04:09:09;;;;;;;9.52;2.58;;;;;;;6.92;100.00;100012.38;4990974;28;20132;-52
2023/01/11 04:11:34;;;;;;;18.13;1.77;;;;;;;6.77;100.00;100008.88;4986200;28;20065;-53
2023/01/11 04:14:00;;;;;;;14.32;2.08;;;;;;;6.77;100.00;100025.50;4989604;28;20182;-50
2023/01/11 04:16:26;;;;;;;7.00;1.33;;;;;;;7.14;100.00;100018.59;4988151;28;20034;-49
2023/01/11 04:18:51;;;;;;;4.80;0.90;;;;;;;7.06;100.00;100016.03;4986179;28;20030;-54
2023/01/11 04:21:16;;;;;;;9.32;2.40;;;;;;;6.94;100.00;100020.94;4987579;28;20034;-52
2023/01/11 04:23:42;;;;;;;4.53;0.75;;;;;;;6.73;100.00;100024.22;4990112;28;20175;-54
2023/01/11 04:26:07;;;;;;;14.98;1.80;;;;;;;6.68;100.00;100021.28;4991013;28;20033;-51
2023/01/11 04:28:33;;;;;;;11.93;1.30;;;;;;;6.91;100.00;100033.63;4990152;28;20035;-49
2023/01/11 04:30:58;;;;;;;8.65;1.20;;;;;;;7.01;100.00;100031.56;4990587;28;20026;-53
2023/01/11 04:33:24;;;;;;;10.65;1.55;;;;;;;6.83;100.00;100028.44;4988889;28;20488;-52
2023/01/11 04:35:49;;;;;;;7.35;1.70;;;;;;;6.73;100.00;100031.31;4989977;28;20030;-52
2023/01/11 04:38:15;;;;;;;8.90;2.05;;;;;;;6.70;100.00;100024.56;4990540;28;20034;-51
2023/01/11 04:40:40;;;;;;;17.27;1.55;;;;;;;6.69;100.00;100037.94;4990973;28;20022;-51
2023/01/11 04:43:06;;;;;;;7.18;1.35;;;;;;;6.48;100.00;100034.13;4989185;28;20034;-54
2023/01/11 04:45:31;;;;;;;6.97;1.02;;;;;;;6.44;100.00;100030.19;4990850;28;21386;-51
2023/01/11 04:47:57;;;;;;;8.75;1.08;;;;;;;6.33;100.00;100039.31;4984785;28;20041;-51
2023/01/11 04:50:24;;;;;;;14.30;0.88;;;;;;;6.27;100.00;100045.28;4990535;28;20057;-51
2023/01/11 04:52:50;;;;;;;4.20;1.90;;;;;;;6.33;100.00;100049.03;4991159;28;20056;-51
2023/01/11 04:55:15;;;;;;;15.43;1.45;;;;;;;6.15;100.00;100062.47;4989997;28;20053;-54
2023/01/11 04:57:43;;;;;;;8.70;2.03;;;;;;;6.28;100.00;100054.81;4988282;28;20495;-51
2023/01/11 05:00:09;;;;;;;11.10;4.53;;;;;;;6.37;100.00;100066.13;4990764;28;20506;-51
2023/01/11 05:02:36;;;;;;;13.73;4.45;;;;;;;6.49;100.00;100067.38;4990061;28;20034;-52
2023/01/11 05:05:03;;;;;;;13.55;1.00;;;;;;;6.62;100.00;100068.63;4993268;28;20113;-55
2023/01/11 05:07:29;;;;;;;9.48;1.45;;;;;;;6.52;100.00;100069.66;4990814;28;20451;-50
2023/01/11 05:09:54;;;;;;;8.48;0.80;;;;;;;6.44;100.00;100072.34;4990044;28;20114;-49
2023/01/11 05:12:19;;;;;;;5.55;0.65;;;;;;;6.42;100.00;100076.13;4989408;28;20084;-52
2023/01/11 05:14:44;;;;;;;6.80;0.70;;;;;;;6.45;100.00;100075.78;4987823;28;20066;-53
2023/01/11 05:17:15;;;;;;;9.35;1.83;;;;;;;6.34;100.00;100077.81;4989719;28;20023;-54
2023/01/11 05:19:40;;;;;;;16.52;2.58;;;;;;;6.34;100.00;100090.16;4991059;28;20503;-50
2023/01/11 05:22:06;;;;;;;11.15;1.17;;;;;;;6.24;100.00;100077.22;4989601;28;20030;-52
2023/01/11 05:24:31;;;;;;;9.80;1.85;;;;;;;6.14;100.00;100084.50;4991849;28;20033;-52
2023/01/11 05:26:57;;;;;;;6.80;1.23;;;;;;;6.18;100.00;100091.06;4991818;28;20042;-50
2023/01/11 05:29:22;;;;;;;14.25;2.90;;;;;;;6.25;100.00;100102.56;4992646;28;20034;-57
2023/01/11 05:31:47;;;;;;;19.02;2.33;;;;;;;6.43;100.00;100109.38;4988848;28;20022;-53
2023/01/11 05:34:14;;;;;;;9.27;0.93;;;;;;;6.52;100.00;100103.88;4993911;28;20648;-53
2023/01/11 05:36:40;;;;;;;8.85;1.00;;;;;;;6.45;100.00;100107.38;4993508;28;20038;-52
2023/01/11 05:39:05;;;;;;;18.08;3.10;;;;;;;6.40;100.00;100104.44;4989567;28;20035;-55
2023/01/11 05:41:30;;;;;;;5.60;1.67;;;;;;;6.48;100.00;100114.94;4989936;28;20076;-54
2023/01/11 05:46:42;;;;;;;6.18;1.30;;;;;;;6.46;100.00;100122.22;4991793;28;20037;-52
2023/01/11 05:49:09;;;;;;;4.80;1.45;;;;;;;6.32;100.00;100121.97;4988466;28;20566;-53
2023/01/11 05:51:34;;;;;;;8.48;1.27;;;;;;;6.31;100.00;100133.47;4989398;28;20038;-51
2023/01/11 05:54:03;;;;;;;6.88;1.50;;;;;;;6.37;100.00;100131.94;4987463;28;20113;-54
2023/01/11 05:56:29;;;;;;;20.58;1.25;;;;;;;6.27;100.00;100128.72;4988765;28;20092;-55
2023/01/11 05:58:54;;;;;;;11.55;1.95;;;;;;;6.27;100.00;100137.44;4987192;28;20038;-56
2023/01/11 06:01:21;;;;;;;3.33;0.52;;;;;;;6.37;100.00;100144.31;4982904;28;20046;-52
2023/01/11 06:03:47;;;;;;;10.02;0.88;;;;;;;6.32;100.00;100143.03;4989026;28;20027;-54
2023/01/11 06:06:14;;;;;;;13.55;2.13;;;;;;;6.32;100.00;100150.94;4987612;28;20040;-53
2023/01/11 06:08:39;;;;;;;12.50;1.15;;;;;;;6.24;100.00;100155.38;4989744;28;20084;-55
2023/01/11 06:11:05;;;;;;;16.98;2.45;;;;;;;6.13;100.00;100148.69;4990785;28;20037;-51
2023/01/11 06:13:32;;;;;;;9.38;1.13;;;;;;;6.03;100.00;100159.41;4989257;28;20030;-54
2023/01/11 06:16:00;;;;;;;9.65;1.52;;;;;;;5.95;100.00;100169.97;4988294;28;20121;-50
2023/01/11 06:18:28;;;;;;;9.00;1.05;;;;;;;5.99;100.00;100171.28;4984192;28;20575;-52
2023/01/11 06:20:54;;;;;;;7.95;0.63;;;;;;;5.89;100.00;100174.06;4988622;28;20097;-55
2023/01/11 06:23:21;;;;;;;6.57;1.80;;;;;;;5.83;100.00;100176.53;4990384;28;20022;-50
2023/01/11 06:25:46;;;;;;;6.18;1.65;;;;;;;5.75;100.00;100180.00;4989783;28;20041;-55
2023/01/11 06:28:12;;;;;;;7.38;2.08;;;;;;;5.62;100.00;100174.41;4988733;28;20042;-51
2023/01/11 06:30:38;;;;;;;14.60;0.98;;;;;;;5.66;100.00;100173.13;4989471;28;20034;-53
2023/01/11 06:33:07;;;;;;;17.02;1.60;;;;;;;5.90;100.00;100182.75;4988080;28;20062;-50
2023/01/11 06:35:36;;;;;;;5.93;2.13;;;;;;;5.83;100.00;100195.75;4989295;28;20041;-52
2023/01/11 06:38:01;;;;;;;11.77;1.63;;;;;;;5.75;100.00;100187.06;4985368;28;20125;-52
2023/01/11 06:40:27;;;;;;;16.80;1.55;;;;;;;5.68;100.00;100190.38;4991022;28;20113;-53
2023/01/11 06:42:53;;;;;;;10.93;1.17;;;;;;;5.59;100.00;100180.00;4988288;28;20491;-52
2023/01/11 06:45:18;;;;;;;3.85;0.17;;;;;;;5.79;100.00;100181.31;4993591;28;20037;-54
2023/01/11 06:47:43;;;;;;;5.47;0.52;;;;;;;5.77;100.00;100180.66;4993493;28;20439;-50
2023/01/11 06:50:09;;;;;;;5.80;0.17;;;;;;;5.85;100.00;100178.00;4994192;28;20037;-54
2023/01/11 06:52:34;;;;;;;6.03;0.38;;;;;;;5.90;100.00;100188.03;4991498;28;20038;-50
2023/01/11 06:55:01;;;;;;;5.85;1.95;;;;;;;5.95;100.00;100187.56;4999406;28;20027;-54
2023/01/11 06:57:27;;;;;;;13.95;1.50;;;;;;;5.94;100.00;100184.13;4992163;28;20085;-51
2023/01/11 06:59:52;;;;;;;9.40;0.82;;;;;;;6.28;100.00;100159.34;4992240;28;20520;-52
2023/01/11 07:02:18;;;;;;;7.65;0.95;;;;;;;6.24;100.00;100164.09;4991997;28;20030;-52
2023/01/11 07:04:43;;;;;;;1.98;0.28;;;;;;;6.26;100.00;100164.75;4992616;28;20030;-51
2023/01/11 07:07:08;;;;;;;6.22;0.90;;;;;;;6.19;100.00;100163.78;4990939;28;20034;-52
2023/01/11 07:09:33;;;;;;;3.40;0.57;;;;;;;6.13;100.00;100164.47;4995991;28;20030;-51
2023/01/11 07:11:59;;;;;;;8.48;1.42;;;;;;;6.07;100.00;100160.72;4991975;28;20073;-52
2023/01/11 07:14:24;;;;;;;10.15;2.30;;;;;;;6.25;100.00;100152.59;4989846;28;20046;-54
2023/01/11 07:16:49;;;;;;;5.45;0.45;;;;;;;6.25;100.00;100159.69;4990445;28;20040;-50
2023/01/11 07:19:16;;;;;;;5.43;1.20;;;;;;;6.18;100.00;100167.41;4991033;28;20723;-51
2023/01/11 07:21:42;;;;;;;10.80;1.92;;;;;;;6.04;100.00;100170.75;4991850;28;20157;-51
2023/01/11 07:24:08;;;;;;;2.28;0.10;;;;;;;6.03;100.00;100169.13;4992111;28;20125;-57
2023/01/11 07:26:36;;;;;;;6.65;0.20;;;;;;;6.03;100.00;100164.66;4991399;28;20030;-53
2023/01/11 07:29:01;;;;;;;3.92;1.25;;;;;;;6.04;100.00;100162.84;4988375;28;20555;-53
2023/01/11 07:31:26;;;;;;;5.93;0.52;;;;;;;5.99;100.00;100159.91;4996370;28;20129;-53
2023/01/11 07:33:52;;;;;;;9.70;0.20;;;;;;;6.03;100.00;100142.78;4989852;28;20146;-56
2023/01/11 07:36:17;;;;;;;6.60;1.55;;;;;;;6.05;100.00;100146.09;4994297;28;20093;-53
2023/01/11 07:38:42;;;;;;;2.40;1.30;;;;;;;5.97;100.00;100156.63;4997826;28;20026;-52
2023/01/11 07:43:53;;;;;;;7.45;0.15;;;;;;;5.86;100.00;100153.34;4992333;28;20200;-54
2023/01/11 07:46:18;;;;;;;2.70;0.38;;;;;;;5.87;100.00;100151.53;4989687;28;20038;-55
2023/01/11 07:48:44;;;;;;;6.10;0.85;;;;;;;5.84;100.00;100160.59;4989881;28;20022;-51
2023/01/11 07:51:10;;;;;;;7.65;0.70;;;;;;;5.83;100.00;100155.47;4988630;28;20072;-52
2023/01/11 07:53:37;;;;;;;5.15;1.55;;;;;;;5.68;100.00;100163.25;4954922;28;20551;-55
2023/01/11 07:56:02;;;;;;;8.65;0.77;;;;;;;5.66;100.00;100167.84;4973323;28;20113;-52
2023/01/11 07:58:28;;;;;;;1.88;0.25;;;;;;;5.54;100.00;100169.16;4978484;28;20076;-55
2023/01/11 08:00:53;;;;;;;2.70;0.85;;;;;;;5.45;100.00;100171.81;4975949;28;20101;-52
2023/01/11 08:03:18;;;;;;;6.90;0.15;;;;;;;5.44;100.00;100183.28;4974749;28;20514;-54
2023/01/11 08:05:49;;;;;;;1.95;0.68;;;;;;;5.38;100.00;100199.75;4970030;28;20045;-52
2023/01/11 08:08:14;;;;;;;3.47;0.15;;;;;;;5.49;100.00;100198.59;4972132;28;20034;-54
2023/01/11 08:10:40;;;;;;;5.72;0.65;;;;;;;5.49;100.00;100187.25;4969921;28;20030;-52
2023/01/11 08:15:49;;;;;;;3.25;0.43;;;;;;;5.64;100.00;100204.00;4975546;28;20049;-53
2023/01/11 08:18:16;;;;;;;6.95;0.75;;;;;;;5.71;100.00;100198.94;4970241;28;20730;-51
2023/01/11 08:20:41;;;;;;;7.03;0.73;;;;;;;5.77;100.00;100208.78;4974897;28;20038;-54
2023/01/11 08:23:09;;;;;;;4.68;2.00;;;;;;;5.81;100.00;100210.91;4969044;28;20042;-54
2023/01/11 08:25:34;;;;;;;4.07;1.98;;;;;;;5.74;100.00;100217.81;4981329;28;20359;-53
2023/01/11 08:28:01;;;;;;;8.23;2.17;;;;;;;5.62;100.00;100219.13;4978686;28;20038;-55
2023/01/11 08:30:27;;;;;;;1.35;0.50;;;;;;;5.49;100.00;100218.81;4982178;28;20100;-56
2023/01/11 08:32:52;;;;;;;5.93;0.22;;;;;;;5.38;100.00;100218.16;4979823;28;20468;-54
2023/01/11 08:35:18;;;;;;;7.63;3.10;;;;;;;5.36;100.00;100220.13;4986631;28;20430;-54
2023/01/11 08:37:43;;;;;;;5.25;0.82;;;;;;;5.29;100.00;100229.63;4987815;28;20031;-52
2023/01/11 08:40:09;;;;;;;7.60;0.55;;;;;;;5.42;100.00;100216.00;4990958;28;20089;-57
2023/01/11 08:42:34;;;;;;;4.32;0.68;;;;;;;5.50;100.00;100225.69;4989705;28;20026;-56
2023/01/11 08:45:00;;;;;;;4.55;0.30;;;;;;;5.54;100.00;100227.03;4988865;28;20027;-53
2023/01/11 08:47:26;;;;;;;8.80;0.82;;;;;;;5.62;100.00;100224.41;4987943;28;20346;-53
2023/01/11 08:49:51;;;;;;;8.60;1.10;;;;;;;5.65;100.00;100229.31;4989221;28;20440;-52
2023/01/11 08:52:17;;;;;;;11.77;0.80;;;;;;;5.75;100.00;100226.53;4986252;28;20387;-54
2023/01/11 08:54:42;;;;;;;8.18;0.35;;;;;;;5.71;100.00;100223.41;4992392;28;20392;-51
2023/01/11 08:57:07;;;;;;;7.72;0.88;;;;;;;5.78;100.00;100218.28;4990471;28;20483;-53
2023/01/11 08:59:33;;;;;;;4.75;1.38;;;;;;;5.75;100.00;100229.97;4988792;28;20152;-53
2023/01/11 09:01:58;;;;;;;3.97;0.43;;;;;;;5.78;100.00;100245.44;4992647;28;20034;-51
2023/01/11 09:04:24;;;;;;;10.45;1.55;;;;;;;5.84;100.00;100244.78;4996204;28;20033;-54
2023/01/11 09:06:50;;;;;;;9.25;0.73;;;;;;;5.79;100.00;100244.44;4994289;28;20037;-52
2023/01/11 09:09:15;;;;;;;10.85;0.90;;;;;;;5.85;100.00;100256.94;4990659;28;20084;-50
2023/01/11 09:11:52;;;;;;;6.85;0.80;;;;;;;5.95;100.00;100261.25;4989289;28;20160;-51
2023/01/11 09:14:18;;;;;;;5.65;0.80;;;;;;;6.02;100.00;100267.50;4990719;28;20042;-52
2023/01/11 09:16:43;;;;;;;7.15;0.93;;;;;;;6.11;100.00;100261.22;4991965;28;20152;-51
2023/01/11 09:19:09;;;;;;;7.07;0.65;;;;;;;6.25;100.00;100260.53;4991039;28;20141;-53
2023/01/11 09:21:34;;;;;;;3.38;0.40;;;;;;;6.33;100.00;100262.34;4988145;28;20042;-54
2023/01/11 09:23:59;;;;;;;5.13;0.60;;;;;;;6.20;100.00;100270.75;4991648;28;20034;-54
2023/01/11 09:26:25;;;;;;;3.22;0.03;;;;;;;6.22;100.00;100276.69;4992958;28;20030;-53
2023/01/11 09:28:50;;;;;;;4.47;1.08;;;;;;;6.39;100.00;100280.09;4990727;28;20033;-54
2023/01/11 09:31:15;;;;;;;5.93;0.75;;;;;;;6.70;100.00;100288.06;4989831;28;20034;-57
2023/01/11 09:33:41;;;;;;;13.57;0.73;;;;;;;6.87;100.00;100264.28;4990186;28;20391;-55
2023/01/11 09:36:06;;;;;;;13.00;1.20;;;;;;;6.87;100.00;100265.09;4988607;28;20022;-51
2023/01/11 09:38:32;;;;;;;11.18;1.05;;;;;;;6.76;100.00;100274.22;4991481;28;20384;-49
2023/01/11 09:41:07;;;;;;;7.32;0.50;;;;;;;6.77;100.00;100275.84;4994302;28;20081;-49
2023/01/11 09:43:39;;;;;;;10.68;0.95;;;;;;;6.85;100.00;100280.25;4990472;28;20395;-51
2023/01/11 09:46:07;;;;;;;6.38;1.15;;;;;;;6.81;100.00;100276.31;4990337;28;20033;-50
2023/01/11 09:48:43;;;;;;;11.13;0.80;;;;;;;6.73;100.00;100284.25;4993294;28;20361;-55
2023/01/11 09:51:14;;;;;;;10.60;1.40;;;;;;;6.91;100.00;100284.03;4989190;28;20069;-50
2023/01/11 09:53:44;;;;;;;;;;;;;;;7.07;100.00;100285.75;4992091;28;20125;-48
2023/01/11 09:56:13;;;;;;;8.52;2.22;;;;;;;7.14;100.00;100294.63;4990050;28;19925;-53
2023/01/11 09:58:50;;;;;;;4.63;0.80;;;;;;;7.21;100.00;100280.56;4992294;28;20035;-52
2023/01/11 10:01:32;;;;;;;8.10;2.13;;;;;;;7.19;100.00;100277.28;4984213;28;20027;-53
2023/01/11 10:04:10;;;;;;;10.75;3.00;;;;;;;7.35;100.00;100281.63;4990142;28;20480;-54
2023/01/11 10:06:54;;;;;;;6.68;0.50;;;;;;;7.59;100.00;100275.38;4988319;28;20034;-50
2023/01/11 10:09:35;;;;;;;3.85;0.75;;;;;;;7.63;100.00;100287.22;4989767;28;20036;-50
2023/01/11 10:12:11;;;;;;;6.63;1.58;;;;;;;7.62;100.00;100277.66;4990240;28;20108;-53
2023/01/11 10:15:07;;;;;;;12.38;0.98;;;;;;;7.55;100.00;100286.47;4988980;28;20035;-54
2023/01/11 10:17:54;;;;;;;10.73;0.98;;;;;;;7.51;100.00;100296.56;4991310;28;20073;-51
2023/01/11 10:20:26;;;;;;;4.13;2.20;;;;;;;7.71;100.00;100291.59;4996418;28;20046;-54
2023/01/11 10:23:03;;;;;;;3.13;1.63;;;;;;;7.83;100.00;100292.84;4996792;28;20484;-52
2023/01/11 10:25:41;;;;;;;6.75;0.95;;;;;;;7.98;100.00;100276.22;4996354;28;20037;-49
2023/01/11 10:28:21;;;;;;;9.40;0.60;;;;;;;8.12;100.00;100266.69;4989344;28;20417;-52
2023/01/11 10:39:49;;;;;;;8.43;0.68;;;;;;;8.45;100.00;100246.88;4996985;28;20045;-55
2023/01/11 10:42:50;;;;;;;7.15;1.13;;;;;;;8.61;100.00;100255.63;4998676;28;20038;-53
2023/01/11 10:45:19;;;;;;;7.90;0.90;;;;;;;8.67;100.00;100247.78;4996434;28;20176;-51
2023/01/11 10:48:10;;;;;;;12.57;1.85;;;;;;;8.81;100.00;100235.53;4996980;28;20027;-52
2023/01/11 10:50:43;;;;;;;3.30;0.82;;;;;;;8.90;100.00;100239.69;4992283;28;20060;-50
2023/01/11 10:53:20;;;;;;;9.27;2.00;;;;;;;8.81;100.00;100230.25;4994154;28;20034;-54
2023/01/11 10:55:56;;;;;;;9.48;1.95;;;;;;;8.74;100.00;100239.91;5003735;28;20088;-54
2023/01/11 10:58:27;;;;;;;6.05;1.08;;;;;;;8.76;100.00;100243.19;4997171;28;20184;-53
2023/01/11 11:01:15;;;;;;;9.70;2.25;;;;;;;8.84;100.00;100229.06;4995440;28;20037;-52
2023/01/11 11:03:59;;;;;;;4.68;0.40;;;;;;;8.98;100.00;100232.66;4994324;28;20121;-54
2023/01/11 11:06:52;;;;;;;6.50;1.10;;;;;;;8.93;100.00;100239.34;4998292;28;20041;-49
2023/01/11 11:09:31;;;;;;;5.10;0.75;;;;;;;9.03;100.00;100244.31;4996795;28;20034;-51
2023/01/11 11:11:58;;;;;;;5.63;1.25;;;;;;;8.85;100.00;100242.06;4992822;28;20078;-52
2023/01/11 11:14:42;;;;;;;5.63;1.05;;;;;;;8.84;100.00;100240.44;4990318;28;20030;-55
2023/01/11 11:17:17;;;;;;;1.90;0.63;;;;;;;8.89;100.00;100251.28;4992838;28;20695;-51
2023/01/11 11:19:42;;;;;;;7.78;0.43;;;;;;;8.89;100.00;100240.72;4994907;28;20113;-51
2023/01/11 11:22:10;;;;;;;8.02;1.33;;;;;;;9.09;100.00;100233.00;5001777;28;20454;-55
2023/01/11 11:24:40;;;;;;;5.55;0.52;;;;;;;9.29;100.00;100224.44;5002459;28;20562;-50
2023/01/11 11:27:10;;;;;;;3.90;0.73;;;;;;;9.46;100.00;100233.78;4996157;28;20030;-49
2023/01/11 11:29:48;;;;;;;10.75;2.03;;;;;;;9.56;100.00;100222.88;4994410;28;20530;-53
2023/01/11 11:32:35;;;;;;;3.05;0.35;;;;;;;9.49;100.00;100206.09;4990542;28;20034;-51
2023/01/11 11:35:00;;;;;;;19.23;1.33;;;;;;;9.39;100.00;100201.94;4991045;28;20549;-51
2023/01/11 11:37:34;;;;;;;2.35;0.25;;;;;;;9.21;100.00;100214.81;4992154;28;20034;-50
2023/01/11 11:40:00;;;;;;;6.47;2.05;;;;;;;9.20;100.00;100201.78;4998317;28;20030;-52
2023/01/11 11:42:26;;;;;;;2.17;0.40;;;;;;;9.13;100.00;100193.75;4992641;28;20123;-56
2023/01/11 11:45:09;;;;;;;6.85;0.77;;;;;;;9.06;100.00;100188.44;4990641;28;20046;-52
2023/01/11 11:47:36;;;;;;;5.43;0.98;;;;;;;9.13;100.00;100185.81;4988613;28;20038;-49
2023/01/11 11:50:21;;;;;;;4.97;1.45;;;;;;;9.17;100.00;100182.63;4989391;28;20085;-52
2023/01/11 11:52:51;;;;;;;5.80;0.88;;;;;;;9.16;100.00;100180.16;4991564;28;20078;-51
2023/01/11 11:55:22;;;;;;;4.55;0.50;;;;;;;9.17;100.00;100182.63;4992599;28;20057;-52
2023/01/11 11:57:47;;;;;;;6.60;1.73;;;;;;;9.25;100.00;100178.22;4987425;28;20110;-53
2023/01/11 12:00:26;;;;;;;4.82;1.42;;;;;;;9.43;100.00;100180.41;4993842;28;20034;-66
2023/01/11 12:02:59;;;;;;;9.18;0.65;;;;;;;9.47;100.00;100189.59;4991978;28;20435;-63
2023/01/11 12:05:24;;;;;;;12.43;3.58;;;;;;;9.57;100.00;100175.03;4994152;28;20043;-63
2023/01/11 12:07:52;;;;;;;2.92;1.45;;;;;;;9.55;100.00;100178.88;4988068;28;20088;-52